Time;durP1;ratioP1;P1;durP2;ratioP2;P2;SDS_P1;SDS_P2;PMS_P1;PMS_P2;Temp;Humidity;BMP_temperature;BMP_pressure;BME280_temperature;BME280_humidity;BME280_pressure;Samples;Min_cycle;Max_cycle;Signal;HPM_P1;HPM_P2
2022/09/17 00:01:09;;;;;;;13.40;1.98;;;11.60;99.90;;;;;;5116306;27;20092;-90
2022/09/17 00:03:35;;;;;;;10.88;2.83;;;11.50;99.90;;;;;;5116816;27;20128;-90
2022/09/17 00:06:07;;;;;;;16.15;2.55;;;11.50;99.90;;;;;;5116922;27;20023;-90
2022/09/17 00:08:34;;;;;;;15.00;3.28;;;11.40;99.90;;;;;;5116358;27;20031;-90
2022/09/17 00:11:15;;;;;;;11.15;2.60;;;11.30;99.90;;;;;;5116348;27;20039;-90
2022/09/17 00:13:42;;;;;;;14.23;2.45;;;11.30;99.90;;;;;;5116704;27;20046;-90
2022/09/17 00:16:08;;;;;;;12.18;2.50;;;11.20;99.90;;;;;;5116115;27;20074;-90
2022/09/17 00:18:35;;;;;;;16.75;3.13;;;11.20;99.90;;;;;;5116565;27;20039;-89
2022/09/17 00:21:02;;;;;;;14.27;3.05;;;11.10;99.90;;;;;;5098972;27;20043;-90
2022/09/17 00:23:28;;;;;;;12.88;2.80;;;11.00;99.90;;;;;;5116258;27;20125;-90
2022/09/17 00:25:53;;;;;;;15.55;3.13;;;11.00;99.90;;;;;;5099409;27;20134;-90
2022/09/17 00:28:19;;;;;;;16.10;3.03;;;10.90;99.90;;;;;;5116512;27;20041;-89
2022/09/17 00:30:45;;;;;;;16.13;3.10;;;10.90;99.90;;;;;;5115660;27;20052;-90
2022/09/17 00:33:16;;;;;;;20.90;3.20;;;10.90;99.90;;;;;;5099198;27;20031;-90
2022/09/17 00:35:42;;;;;;;15.75;2.53;;;10.80;99.90;;;;;;5116060;27;20051;-90
2022/09/17 00:38:08;;;;;;;14.93;2.90;;;10.80;99.90;;;;;;5097683;27;20074;-90
2022/09/17 00:40:34;;;;;;;14.00;2.63;;;10.80;99.90;;;;;;5099041;27;20074;-90
2022/09/17 00:43:00;;;;;;;13.77;2.60;;;10.70;99.90;;;;;;5115843;27;20039;-90
2022/09/17 00:45:27;;;;;;;15.15;2.50;;;10.70;99.90;;;;;;5115493;27;20100;-90
2022/09/17 00:48:05;;;;;;;16.38;3.85;;;10.70;99.90;;;;;;5115935;27;20110;-89
2022/09/17 00:50:40;;;;;;;17.67;3.25;;;10.70;99.90;;;;;;5115798;27;20035;-90
2022/09/17 00:53:14;;;;;;;14.57;2.55;;;10.70;99.90;;;;;;5115514;27;20070;-90
2022/09/17 00:55:44;;;;;;;15.15;2.67;;;10.70;99.90;;;;;;5098742;27;20035;-90
2022/09/17 00:58:13;;;;;;;8.30;2.28;;;10.70;99.90;;;;;;5098814;27;20042;-90
2022/09/17 01:00:39;;;;;;;10.90;2.10;;;10.80;99.90;;;;;;5115660;27;20404;-90
2022/09/17 01:03:04;;;;;;;13.77;2.13;;;10.70;99.90;;;;;;5115618;27;20396;-90
2022/09/17 01:05:53;;;;;;;13.70;2.80;;;10.80;99.90;;;;;;5115552;27;20500;-90
2022/09/17 01:08:51;;;;;;;14.25;2.40;;;10.80;99.90;;;;;;5115464;27;20095;-90
2022/09/17 01:11:42;;;;;;;10.52;1.92;;;10.90;99.90;;;;;;5115299;27;20048;-90
2022/09/17 01:14:35;;;;;;;20.15;2.35;;;10.80;99.90;;;;;;5115104;27;20039;-89
2022/09/17 01:17:24;;;;;;;16.95;2.22;;;10.90;99.90;;;;;;5098401;27;20047;-89
2022/09/17 01:20:26;;;;;;;10.93;2.03;;;10.90;99.90;;;;;;5098408;27;20049;-90
2022/09/17 01:23:20;;;;;;;12.80;2.08;;;10.90;99.90;;;;;;5097584;27;20035;-90
2022/09/17 01:26:21;;;;;;;18.75;2.53;;;10.80;99.90;;;;;;5078623;27;20107;-90
2022/09/17 01:28:54;;;;;;;14.80;1.98;;;10.80;99.90;;;;;;5075993;27;20050;-90
2022/09/17 01:31:33;;;;;;;10.75;1.83;;;10.80;99.90;;;;;;5097905;27;20071;-90
2022/09/17 01:34:07;;;;;;;10.00;2.15;;;10.80;99.90;;;;;;5114959;27;20050;-90
2022/09/17 01:37:07;;;;;;;11.45;1.70;;;10.70;99.90;;;;;;5114566;27;20070;-90
2022/09/17 01:39:56;;;;;;;11.63;1.90;;;10.70;99.90;;;;;;5080983;27;20051;-90
2022/09/17 01:42:42;;;;;;;13.43;1.90;;;10.70;99.90;;;;;;5114780;27;20126;-90
2022/09/17 01:45:16;;;;;;;18.08;2.45;;;10.70;99.90;;;;;;5114820;27;20038;-90
2022/09/17 01:48:06;;;;;;;12.65;2.60;;;10.70;99.90;;;;;;5114874;27;20031;-90
2022/09/17 01:50:52;;;;;;;14.45;2.30;;;10.60;99.90;;;;;;5114391;27;20088;-90
2022/09/17 01:53:24;;;;;;;15.93;2.70;;;10.60;99.90;;;;;;5114532;27;20043;-90
2022/09/17 01:55:54;;;;;;;16.98;3.72;;;10.50;99.90;;;;;;5114743;27;20042;-89
2022/09/17 01:58:30;;;;;;;11.60;2.40;;;10.40;99.90;;;;;;5114448;27;20454;-89
2022/09/17 02:01:02;;;;;;;17.40;2.95;;;10.40;99.90;;;;;;5114532;27;20118;-89
2022/09/17 02:03:34;;;;;;;15.88;3.80;;;10.30;99.90;;;;;;5114435;27;20039;-90
2022/09/17 02:06:11;;;;;;;14.20;2.50;;;10.30;99.90;;;;;;5114355;27;20043;-90
2022/09/17 02:08:50;;;;;;;18.55;2.70;;;10.30;99.90;;;;;;5114424;27;20035;-90
2022/09/17 02:11:17;;;;;;;12.70;2.58;;;10.30;99.90;;;;;;5114240;27;20046;-89
2022/09/17 02:13:51;;;;;;;13.00;2.60;;;10.30;99.90;;;;;;5097037;28;20495;-90
2022/09/17 02:16:26;;;;;;;10.70;2.45;;;10.30;99.90;;;;;;5114288;27;20118;-90
2022/09/17 02:19:05;;;;;;;19.88;2.47;;;10.30;99.90;;;;;;5114373;27;20042;-90
2022/09/17 02:21:44;;;;;;;15.73;2.33;;;10.30;99.90;;;;;;5113766;28;20042;-90
2022/09/17 02:24:18;;;;;;;13.15;2.13;;;10.30;99.90;;;;;;5114639;28;20121;-90
2022/09/17 02:26:52;;;;;;;17.63;2.13;;;10.40;99.90;;;;;;5097316;28;20054;-89
2022/09/17 02:29:34;;;;;;;13.70;2.35;;;10.40;99.90;;;;;;5097266;28;20038;-90
2022/09/17 02:32:00;;;;;;;14.60;2.00;;;10.40;99.90;;;;;;5113906;28;20691;-89
2022/09/17 02:34:28;;;;;;;9.75;2.13;;;10.40;99.90;;;;;;5113916;28;20452;-89
2022/09/17 02:36:55;;;;;;;11.35;1.65;;;10.40;99.90;;;;;;5114052;28;20049;-89
2022/09/17 02:39:20;;;;;;;10.18;1.50;;;10.40;99.90;;;;;;5114418;28;20084;-90
2022/09/17 02:41:51;;;;;;;13.65;1.80;;;10.40;99.90;;;;;;5113650;28;20043;-90
2022/09/17 02:44:37;;;;;;;10.75;1.70;;;10.40;99.90;;;;;;5114003;28;20053;-90
2022/09/17 02:47:21;;;;;;;9.80;2.03;;;10.40;99.90;;;;;;5114016;28;20042;-90
2022/09/17 02:50:10;;;;;;;15.52;3.10;;;10.30;99.90;;;;;;5113737;28;20042;-90
2022/09/17 02:52:36;;;;;;;12.35;2.17;;;10.40;99.90;;;;;;5113979;28;20039;-90
2022/09/17 02:55:23;;;;;;;8.68;1.60;;;10.40;99.90;;;;;;5096944;28;20050;-89
2022/09/17 02:58:02;;;;;;;12.35;2.15;;;10.40;99.90;;;;;;5113532;28;20039;-90
2022/09/17 03:00:27;;;;;;;10.32;1.63;;;10.40;99.90;;;;;;5114803;27;20118;-89
2022/09/17 03:03:03;;;;;;;12.55;1.75;;;10.40;99.90;;;;;;5117780;27;20130;-90
2022/09/17 03:05:29;;;;;;;13.93;2.10;;;10.40;99.90;;;;;;5117584;27;20050;-89
2022/09/17 03:07:56;;;;;;;14.85;2.85;;;10.50;99.90;;;;;;5118096;27;20171;-90
2022/09/17 03:10:22;;;;;;;11.88;1.98;;;10.50;99.90;;;;;;5117728;27;20113;-89
2022/09/17 03:12:48;;;;;;;11.45;2.42;;;10.50;99.90;;;;;;5100276;27;20039;-89
2022/09/17 03:15:14;;;;;;;13.82;2.85;;;10.50;99.90;;;;;;5117796;27;20042;-90
2022/09/17 03:17:39;;;;;;;10.45;1.90;;;10.50;99.90;;;;;;5117419;27;20074;-90
2022/09/17 03:20:06;;;;;;;12.73;2.00;;;10.60;99.90;;;;;;5117656;27;20121;-90
2022/09/17 03:22:31;;;;;;;9.05;1.90;;;10.60;99.90;;;;;;5117253;27;20035;-90
2022/09/17 03:24:57;;;;;;;13.30;2.15;;;10.60;99.90;;;;;;5117529;27;20046;-89
2022/09/17 03:27:22;;;;;;;11.32;1.80;;;10.60;99.90;;;;;;5117319;27;20467;-90
2022/09/17 03:29:48;;;;;;;13.68;2.05;;;10.70;99.90;;;;;;5100817;27;20452;-89
2022/09/17 03:32:13;;;;;;;14.80;1.88;;;10.60;99.90;;;;;;5117052;27;20039;-90
2022/09/17 03:34:39;;;;;;;8.90;2.10;;;10.60;99.90;;;;;;5117095;27;20130;-90
2022/09/17 03:37:04;;;;;;;10.10;1.75;;;10.60;99.90;;;;;;5117557;27;20039;-90
2022/09/17 03:39:30;;;;;;;13.68;2.60;;;10.60;99.90;;;;;;5100462;27;20042;-89
2022/09/17 03:41:56;;;;;;;11.57;2.00;;;10.50;99.90;;;;;;5116667;27;20496;-90
2022/09/17 03:44:22;;;;;;;12.20;2.05;;;10.50;99.90;;;;;;5117122;27;20091;-90
2022/09/17 03:46:49;;;;;;;11.02;2.13;;;10.50;99.90;;;;;;5116937;27;20500;-90
2022/09/17 03:49:14;;;;;;;14.23;1.85;;;10.50;99.90;;;;;;5116824;27;20062;-90
2022/09/17 03:51:40;;;;;;;9.57;1.55;;;10.50;99.90;;;;;;5116716;27;20046;-90
2022/09/17 03:54:06;;;;;;;11.43;1.40;;;10.50;99.90;;;;;;5100158;27;20039;-89
2022/09/17 03:56:31;;;;;;;7.35;1.88;;;10.40;99.90;;;;;;5116831;27;20122;-90
2022/09/17 03:58:58;;;;;;;10.93;1.42;;;10.40;99.90;;;;;;5099954;27;20489;-89
2022/09/17 04:01:24;;;;;;;11.40;1.42;;;10.40;99.90;;;;;;5116351;27;20050;-89
2022/09/17 04:03:51;;;;;;;5.90;1.17;;;10.40;99.90;;;;;;5099704;27;20035;-90
2022/09/17 04:06:16;;;;;;;10.15;2.05;;;10.40;99.90;;;;;;5116873;27;20523;-90
2022/09/17 04:08:42;;;;;;;9.63;1.27;;;10.40;99.90;;;;;;5116752;27;20036;-90
2022/09/17 04:11:08;;;;;;;11.50;2.20;;;10.30;99.90;;;;;;5099103;27;20042;-89
2022/09/17 04:13:34;;;;;;;8.00;1.38;;;10.30;99.90;;;;;;5116542;27;20107;-90
2022/09/17 04:16:00;;;;;;;9.32;1.55;;;10.30;99.90;;;;;;5116343;27;20035;-90
2022/09/17 04:18:25;;;;;;;8.25;1.48;;;10.30;99.90;;;;;;5116211;27;20039;-90
2022/09/17 04:20:52;;;;;;;9.90;1.80;;;10.30;99.90;;;;;;5116591;27;20031;-90
2022/09/17 04:23:17;;;;;;;9.55;1.27;;;10.30;99.90;;;;;;5116238;27;20065;-89
2022/09/17 04:25:43;;;;;;;10.65;1.40;;;10.30;99.90;;;;;;5115934;27;20500;-89
2022/09/17 04:28:09;;;;;;;9.32;1.67;;;10.30;99.90;;;;;;5116288;27;20381;-90
2022/09/17 04:30:34;;;;;;;14.93;2.42;;;10.30;99.90;;;;;;5116467;27;20031;-89
2022/09/17 04:33:00;;;;;;;8.90;1.85;;;10.40;99.90;;;;;;5098654;27;20485;-89
2022/09/17 04:35:25;;;;;;;9.27;1.45;;;10.30;99.90;;;;;;5116197;27;20046;-90
2022/09/17 04:37:55;;;;;;;15.70;2.55;;;10.30;99.90;;;;;;5116131;27;20043;-89
2022/09/17 04:40:22;;;;;;;9.85;1.65;;;10.40;99.90;;;;;;5115528;27;20052;-89
2022/09/17 04:42:52;;;;;;;11.70;2.30;;;10.40;99.90;;;;;;5115849;27;20046;-89
2022/09/17 04:45:18;;;;;;;10.48;1.52;;;10.40;99.90;;;;;;5098926;27;20070;-89
2022/09/17 04:47:44;;;;;;;13.05;2.65;;;10.40;99.90;;;;;;5115590;27;20580;-90
2022/09/17 04:50:09;;;;;;;9.13;1.70;;;10.40;99.90;;;;;;5116002;27;20042;-90
2022/09/17 04:52:35;;;;;;;10.13;1.75;;;10.40;99.90;;;;;;5098415;27;20262;-90
2022/09/17 04:55:01;;;;;;;9.73;1.92;;;10.40;99.90;;;;;;5115988;27;20045;-90
2022/09/17 04:57:26;;;;;;;9.88;1.35;;;10.40;99.90;;;;;;5133872;27;20038;-90
2022/09/17 04:59:52;;;;;;;11.55;1.92;;;10.40;99.90;;;;;;5116013;27;20074;-90
2022/09/17 05:02:18;;;;;;;9.57;1.80;;;10.40;99.90;;;;;;5098468;27;20031;-90
2022/09/17 05:04:43;;;;;;;13.10;1.95;;;10.40;99.90;;;;;;5115343;27;20047;-90
2022/09/17 05:07:09;;;;;;;11.68;1.52;;;10.50;99.90;;;;;;5115321;27;20039;-89
2022/09/17 05:09:34;;;;;;;11.32;1.63;;;10.40;99.90;;;;;;5098513;27;20870;-90
2022/09/17 05:12:00;;;;;;;7.95;1.85;;;10.50;99.90;;;;;;5097961;27;20070;-90
2022/09/17 05:14:25;;;;;;;11.93;1.90;;;10.50;99.90;;;;;;5115609;27;20046;-90
2022/09/17 05:16:51;;;;;;;12.15;2.33;;;10.50;99.90;;;;;;5098218;27;20050;-90
2022/09/17 05:19:17;;;;;;;11.57;2.58;;;10.50;99.90;;;;;;5097816;27;20087;-90
2022/09/17 05:21:43;;;;;;;7.80;1.75;;;10.50;99.90;;;;;;5114340;27;20122;-90
2022/09/17 05:24:08;;;;;;;12.93;2.13;;;10.50;99.90;;;;;;5115014;27;20183;-90
2022/09/17 05:26:34;;;;;;;12.38;2.22;;;10.50;99.90;;;;;;5114774;27;20500;-90
2022/09/17 05:29:00;;;;;;;10.77;2.35;;;10.50;99.90;;;;;;5133654;27;20038;-89
2022/09/17 05:31:25;;;;;;;10.73;2.05;;;10.50;99.90;;;;;;5133184;27;20031;-89
2022/09/17 05:33:51;;;;;;;15.27;2.05;;;10.50;99.90;;;;;;5114747;27;20503;-90
2022/09/17 05:36:16;;;;;;;11.82;1.95;;;10.50;99.90;;;;;;5114809;27;20131;-89
2022/09/17 05:38:42;;;;;;;8.57;1.80;;;10.50;99.90;;;;;;5098086;27;20035;-89
2022/09/17 05:41:07;;;;;;;11.90;2.42;;;10.50;99.90;;;;;;5114344;27;20396;-90
2022/09/17 05:43:33;;;;;;;11.85;2.28;;;10.50;99.90;;;;;;5114990;27;20084;-89
2022/09/17 05:46:04;;;;;;;9.75;1.30;;;10.50;99.90;;;;;;5114830;27;20039;-89
2022/09/17 05:48:30;;;;;;;6.82;1.40;;;10.50;99.90;;;;;;5114341;27;20042;-90
2022/09/17 05:50:55;;;;;;;10.57;2.22;;;10.50;99.90;;;;;;5114387;27;20031;-90
2022/09/17 05:53:21;;;;;;;11.63;1.77;;;10.50;99.90;;;;;;5114739;27;20138;-90
2022/09/17 05:55:47;;;;;;;9.93;2.00;;;10.50;99.90;;;;;;5115683;27;20043;-90
2022/09/17 05:58:15;;;;;;;10.15;1.83;;;10.40;99.90;;;;;;5122539;27;20099;-89
2022/09/17 06:00:41;;;;;;;13.30;2.08;;;10.50;99.90;;;;;;5113974;27;20045;-89
2022/09/17 06:03:09;;;;;;;12.70;1.80;;;10.50;99.90;;;;;;5114241;27;20062;-89
2022/09/17 06:05:35;;;;;;;10.73;1.70;;;10.50;99.90;;;;;;5097436;27;20039;-89
2022/09/17 06:08:01;;;;;;;11.52;2.17;;;10.60;99.90;;;;;;5097809;27;20031;-90
2022/09/17 06:10:26;;;;;;;7.00;1.23;;;10.60;99.90;;;;;;5114258;27;20035;-90
2022/09/17 06:12:56;;;;;;;8.73;1.23;;;10.60;99.90;;;;;;5114226;27;20515;-90
2022/09/17 06:15:22;;;;;;;12.25;1.80;;;10.70;99.90;;;;;;5114398;27;20114;-90
2022/09/17 06:17:47;;;;;;;8.32;1.80;;;10.70;99.90;;;;;;5113757;27;20130;-90
2022/09/17 06:20:14;;;;;;;11.32;1.65;;;10.70;99.90;;;;;;5097470;27;20047;-90
2022/09/17 06:22:40;;;;;;;9.63;1.80;;;10.70;99.90;;;;;;5113617;27;20043;-89
2022/09/17 06:25:06;;;;;;;14.63;1.90;;;10.70;99.90;;;;;;5113983;27;20066;-90
2022/09/17 06:27:33;;;;;;;11.57;1.60;;;10.70;99.90;;;;;;5113849;28;20047;-89
2022/09/17 06:29:59;;;;;;;9.93;1.48;;;10.70;99.90;;;;;;5114165;28;20122;-90
2022/09/17 06:32:25;;;;;;;9.35;1.45;;;10.70;99.90;;;;;;5118820;27;20457;-90
2022/09/17 06:34:51;;;;;;;5.82;1.45;;;10.80;99.90;;;;;;5117543;27;20513;-90
2022/09/17 06:37:17;;;;;;;9.52;1.73;;;10.80;99.90;;;;;;5121917;27;20035;-90
2022/09/17 06:39:43;;;;;;;8.95;1.13;;;10.80;99.90;;;;;;5138839;27;20062;-90
2022/09/17 06:42:09;;;;;;;6.80;1.48;;;10.80;99.90;;;;;;5138837;27;20039;-89
2022/09/17 06:44:34;;;;;;;11.40;1.85;;;10.80;99.90;;;;;;5138905;27;20121;-89
2022/09/17 06:47:00;;;;;;;13.38;2.03;;;10.80;99.90;;;;;;5121581;27;20538;-89
2022/09/17 06:49:26;;;;;;;8.73;1.88;;;10.80;99.90;;;;;;5138826;27;20118;-90
2022/09/17 06:51:51;;;;;;;11.15;1.88;;;10.80;99.90;;;;;;5121095;27;20497;-90
2022/09/17 06:54:17;;;;;;;9.75;1.40;;;10.90;99.90;;;;;;5138516;27;20039;-90
2022/09/17 06:56:46;;;;;;;10.10;2.45;;;10.90;99.90;;;;;;5138440;27;20035;-90
2022/09/17 06:59:11;;;;;;;8.88;1.88;;;10.90;99.90;;;;;;5138566;27;20122;-89
2022/09/17 07:01:37;;;;;;;7.75;1.70;;;11.00;99.90;;;;;;5137948;27;20129;-90
2022/09/17 07:04:02;;;;;;;8.60;1.50;;;11.10;99.90;;;;;;5121067;27;20126;-90
2022/09/17 07:06:28;;;;;;;12.15;1.67;;;11.20;99.90;;;;;;5156948;27;20118;-90
2022/09/17 07:08:53;;;;;;;9.38;1.67;;;11.20;99.90;;;;;;5120934;27;20045;-90
2022/09/17 07:11:19;;;;;;;9.95;1.67;;;11.30;99.90;;;;;;5121292;27;20030;-90
2022/09/17 07:13:44;;;;;;;13.10;2.05;;;11.20;99.90;;;;;;5138474;27;20679;-89
2022/09/17 07:16:12;;;;;;;11.05;1.73;;;11.20;99.90;;;;;;5137926;27;20035;-89
2022/09/17 07:18:38;;;;;;;8.43;1.50;;;11.20;99.90;;;;;;5121310;27;20049;-90
2022/09/17 07:21:05;;;;;;;8.82;1.17;;;11.20;99.90;;;;;;5137848;27;20045;-89
2022/09/17 07:23:32;;;;;;;8.60;1.65;;;11.20;99.90;;;;;;5120757;27;20027;-90
2022/09/17 07:26:00;;;;;;;10.48;2.08;;;11.30;99.90;;;;;;5137870;27;20038;-90
2022/09/17 07:28:27;;;;;;;7.63;1.52;;;11.30;99.90;;;;;;5138409;27;20079;-89
2022/09/17 07:30:54;;;;;;;10.82;1.85;;;11.40;99.90;;;;;;5120413;27;20035;-90
2022/09/17 07:33:24;;;;;;;8.15;1.40;;;11.50;99.90;;;;;;5137925;27;20114;-90
2022/09/17 07:36:00;;;;;;;12.10;2.05;;;11.60;99.90;;;;;;5137990;27;20488;-90
2022/09/17 07:38:28;;;;;;;8.02;1.50;;;11.70;99.90;;;;;;5137609;27;20070;-90
2022/09/17 07:41:11;;;;;;;11.70;1.77;;;11.70;99.90;;;;;;5137409;27;20042;-90
2022/09/17 07:43:36;;;;;;;9.13;1.85;;;11.80;99.90;;;;;;5120742;27;20031;-90
2022/09/17 07:46:04;;;;;;;10.80;1.90;;;11.80;99.90;;;;;;5136910;27;20510;-90
2022/09/17 07:48:30;;;;;;;12.30;1.98;;;11.80;99.90;;;;;;5120567;27;20031;-89
2022/09/17 07:50:56;;;;;;;8.57;1.95;;;11.90;99.90;;;;;;5137317;27;20038;-90
2022/09/17 07:53:22;;;;;;;8.90;1.50;;;12.00;99.90;;;;;;5120316;27;20079;-91
2022/09/17 07:55:58;;;;;;;8.88;1.83;;;12.10;99.90;;;;;;5131788;27;20427;-90
2022/09/17 07:58:32;;;;;;;10.25;1.60;;;12.20;99.90;;;;;;5128347;27;20167;-89
2022/09/17 08:01:03;;;;;;;12.98;1.80;;;12.30;99.90;;;;;;5099437;27;20047;-90
2022/09/17 08:03:29;;;;;;;9.10;1.40;;;12.30;99.90;;;;;;5100076;27;20054;-89
2022/09/17 08:06:02;;;;;;;10.52;2.30;;;12.30;99.90;;;;;;5116735;27;20568;-90
2022/09/17 08:08:30;;;;;;;10.05;1.85;;;12.40;99.90;;;;;;5116392;27;20492;-90
2022/09/17 08:10:59;;;;;;;9.52;1.45;;;12.50;99.90;;;;;;5116217;27;20031;-90
2022/09/17 08:13:25;;;;;;;7.72;1.55;;;12.60;99.90;;;;;;5099647;27;20519;-90
2022/09/17 08:15:50;;;;;;;6.60;1.75;;;12.60;99.90;;;;;;5116539;27;20043;-90
2022/09/17 08:18:16;;;;;;;10.57;1.70;;;12.70;99.90;;;;;;5116477;27;20046;-90
2022/09/17 08:20:41;;;;;;;8.52;1.30;;;12.80;99.90;;;;;;5116450;27;20046;-91
2022/09/17 08:23:07;;;;;;;8.00;1.70;;;12.90;99.90;;;;;;5098750;27;20038;-90
2022/09/17 08:25:33;;;;;;;10.13;1.38;;;13.00;99.90;;;;;;5099344;27;20035;-90
2022/09/17 08:27:58;;;;;;;8.98;1.50;;;13.10;99.90;;;;;;5099416;27;20078;-90
2022/09/17 08:30:24;;;;;;;9.95;1.65;;;13.20;99.90;;;;;;5115992;27;20125;-90
2022/09/17 08:32:49;;;;;;;12.02;1.23;;;13.30;99.90;;;;;;5116065;27;20027;-89
2022/09/17 08:35:15;;;;;;;10.32;1.25;;;13.20;99.90;;;;;;5120502;27;20045;-90
2022/09/17 08:37:41;;;;;;;9.05;1.48;;;13.10;99.90;;;;;;5119242;27;20035;-90
2022/09/17 08:40:15;;;;;;;10.20;1.35;;;13.10;99.90;;;;;;5119519;27;20483;-90
2022/09/17 08:42:53;;;;;;;7.80;1.13;;;13.10;99.90;;;;;;5136410;27;20091;-90
2022/09/17 08:45:20;;;;;;;6.22;1.42;;;13.10;99.90;;;;;;5136188;27;20046;-90
2022/09/17 08:47:47;;;;;;;10.07;1.85;;;13.10;99.90;;;;;;5126931;27;20031;-90
2022/09/17 08:50:17;;;;;;;6.57;1.23;;;13.10;99.90;;;;;;5109025;27;20035;-90
2022/09/17 08:52:58;;;;;;;7.90;1.25;;;13.10;99.90;;;;;;5108966;27;20031;-90
2022/09/17 08:55:39;;;;;;;5.75;1.02;;;13.20;99.90;;;;;;5127689;27;20523;-90
2022/09/17 08:58:36;;;;;;;8.57;1.40;;;13.20;99.90;;;;;;5118319;27;20049;-90
2022/09/17 09:01:13;;;;;;;10.98;1.27;;;13.20;99.90;;;;;;5136029;27;20042;-90
2022/09/17 09:04:01;;;;;;;5.45;0.88;;;13.10;99.90;;;;;;5135967;27;20042;-90
2022/09/17 09:06:32;;;;;;;8.48;1.27;;;13.20;99.90;;;;;;5136188;27;20046;-90
2022/09/17 09:09:10;;;;;;;5.95;1.08;;;13.20;99.90;;;;;;5119030;27;20095;-90
2022/09/17 09:11:36;;;;;;;8.20;1.40;;;13.30;99.90;;;;;;5135902;27;20027;-90
2022/09/17 09:14:26;;;;;;;8.50;1.30;;;13.30;99.90;;;;;;5135956;27;20064;-90
2022/09/17 09:16:53;;;;;;;8.43;1.40;;;13.40;99.90;;;;;;5118998;27;20041;-90
2022/09/17 09:19:29;;;;;;;7.78;1.30;;;13.50;99.90;;;;;;5118864;27;20035;-90
2022/09/17 09:22:04;;;;;;;9.75;1.77;;;13.50;99.90;;;;;;5135200;27;20050;-89
2022/09/17 09:25:03;;;;;;;7.70;1.48;;;13.60;99.90;;;;;;5135803;27;20084;-90
2022/09/17 09:27:37;;;;;;;8.75;1.67;;;13.70;99.90;;;;;;5135455;27;20027;-89
2022/09/17 09:30:10;;;;;;;7.20;1.05;;;13.90;99.90;;;;;;5135790;27;20038;-89
2022/09/17 09:32:47;;;;;;;8.02;1.25;;;14.00;99.90;;;;;;5118281;27;20122;-90
2022/09/17 09:35:26;;;;;;;5.72;1.20;;;14.10;99.90;;;;;;5121402;27;20047;-90
2022/09/17 09:38:15;;;;;;;6.72;1.30;;;14.20;99.90;;;;;;5097007;27;20095;-90
2022/09/17 09:40:55;;;;;;;5.47;1.00;;;14.20;99.90;;;;;;5097613;27;20088;-90
2022/09/17 09:43:47;;;;;;;6.60;1.27;;;14.30;99.90;;;;;;5114905;27;20377;-90
2022/09/17 09:46:29;;;;;;;6.53;1.15;;;14.50;99.90;;;;;;5114444;27;20035;-90
2022/09/17 09:49:17;;;;;;;7.30;0.90;;;14.50;99.90;;;;;;5114340;27;20046;-90
2022/09/17 09:52:05;;;;;;;6.20;1.35;;;14.50;99.90;;;;;;5096837;27;20039;-90
2022/09/17 09:55:15;;;;;;;7.57;1.60;;;14.30;99.90;;;;;;5114280;27;20054;-90
2022/09/17 09:57:46;;;;;;;7.82;1.27;;;14.30;99.90;;;;;;5097039;27;20560;-90
2022/09/17 10:00:35;;;;;;;7.72;1.65;;;14.40;99.90;;;;;;5113423;27;20039;-90
2022/09/17 10:03:15;;;;;;;6.22;1.15;;;14.50;99.90;;;;;;5096736;27;20050;-90
2022/09/17 10:06:01;;;;;;;8.63;1.38;;;14.50;99.90;;;;;;5096916;27;20039;-90
2022/09/17 10:08:29;;;;;;;10.07;1.63;;;14.40;99.90;;;;;;5113965;27;20529;-90
2022/09/17 10:10:57;;;;;;;9.52;1.48;;;14.40;99.90;;;;;;5113651;27;20489;-90
2022/09/17 10:13:24;;;;;;;10.38;1.90;;;14.30;99.90;;;;;;5113758;27;20070;-90
2022/09/17 10:15:49;;;;;;;7.63;0.90;;;14.30;99.90;;;;;;5113831;27;20084;-90
2022/09/17 10:18:23;;;;;;;9.20;1.60;;;14.30;99.90;;;;;;5113832;27;20047;-90
2022/09/17 10:20:56;;;;;;;6.90;1.50;;;14.50;99.90;;;;;;5113275;27;20050;-90
2022/09/17 10:23:24;;;;;;;6.70;1.40;;;14.60;99.90;;;;;;5096641;28;20042;-90
2022/09/17 10:25:51;;;;;;;7.15;1.13;;;14.60;99.90;;;;;;5096786;28;20519;-90
2022/09/17 10:28:31;;;;;;;5.97;1.02;;;14.50;99.90;;;;;;5113227;28;20050;-90
2022/09/17 10:31:00;;;;;;;7.50;1.30;;;14.50;99.90;;;;;;5113548;27;20403;-90
2022/09/17 10:33:27;;;;;;;4.95;0.85;;;14.40;99.90;;;;;;5096774;28;20042;-90
2022/09/17 10:36:05;;;;;;;4.47;1.10;;;14.40;99.90;;;;;;5096148;28;20437;-90
2022/09/17 10:38:34;;;;;;;6.28;1.10;;;14.40;99.90;;;;;;5132300;28;20442;-90
2022/09/17 10:41:17;;;;;;;5.95;1.10;;;14.50;99.90;;;;;;5096681;28;20038;-90
2022/09/17 10:43:43;;;;;;;5.68;1.00;;;14.60;99.90;;;;;;5096351;28;20473;-90
2022/09/17 10:46:13;;;;;;;6.50;1.38;;;14.80;99.90;;;;;;5113317;28;20050;-90
2022/09/17 10:48:49;;;;;;;7.90;1.50;;;15.00;99.90;;;;;;5097226;28;20373;-90
2022/09/17 10:51:21;;;;;;;7.28;1.35;;;15.10;99.90;;;;;;5112764;28;20119;-90
2022/09/17 10:54:15;;;;;;;7.30;1.35;;;15.30;99.90;;;;;;5096636;28;20027;-89
2022/09/17 10:56:48;;;;;;;8.52;1.50;;;15.20;99.90;;;;;;5113214;28;20039;-90
2022/09/17 10:59:40;;;;;;;6.13;1.10;;;15.20;99.90;;;;;;5113327;28;20105;-90
2022/09/17 11:02:34;;;;;;;5.90;1.13;;;15.20;99.90;;;;;;5113131;28;20464;-90
2022/09/17 11:05:30;;;;;;;4.68;0.80;;;15.30;99.90;;;;;;5124365;27;20037;-89
2022/09/17 11:08:28;;;;;;;6.75;0.98;;;15.40;99.90;;;;;;5081797;27;20050;-89
2022/09/17 11:11:31;;;;;;;8.05;1.20;;;15.50;99.90;;;;;;5116370;27;20049;-90
2022/09/17 11:13:56;;;;;;;;;;;15.70;99.90;;;;;;5134177;27;20039;-90
2022/09/17 11:16:38;;;;;;;7.53;1.38;;;15.80;99.90;;;;;;5116877;27;19921;-90
2022/09/17 11:19:31;;;;;;;9.60;2.08;;;15.90;99.90;;;;;;5116529;27;20035;-90
2022/09/17 11:22:05;;;;;;;9.23;1.55;;;16.10;99.90;;;;;;5117859;27;20072;-90
2022/09/17 11:24:51;;;;;;;7.68;1.50;;;16.20;99.90;;;;;;5137765;27;20038;-91
2022/09/17 11:27:34;;;;;;;8.82;1.80;;;16.30;99.90;;;;;;5135499;27;20035;-90
2022/09/17 11:30:07;;;;;;;9.48;1.85;;;16.50;99.90;;;;;;5137816;27;20042;-90
2022/09/17 11:32:54;;;;;;;10.65;2.00;;;16.70;99.90;;;;;;5118817;27;20080;-90
2022/09/17 11:35:31;;;;;;;9.77;1.83;;;16.80;99.90;;;;;;5137730;27;20054;-90
2022/09/17 11:38:16;;;;;;;10.50;1.77;;;16.90;99.90;;;;;;5120730;27;20038;-90
2022/09/17 11:40:44;;;;;;;9.55;1.60;;;16.90;99.90;;;;;;5137869;27;20515;-90
2022/09/17 11:43:26;;;;;;;9.13;1.80;;;16.50;99.90;;;;;;5137534;27;20049;-91
2022/09/17 11:46:23;;;;;;;10.02;2.08;;;16.20;99.90;;;;;;5137814;27;20061;-90
2022/09/17 11:49:07;;;;;;;9.50;2.33;;;15.90;99.90;;;;;;5137634;27;20043;-90
2022/09/17 11:51:58;;;;;;;9.05;1.90;;;15.60;99.90;;;;;;5120273;27;20035;-90
2022/09/17 11:54:32;;;;;;;6.82;1.42;;;15.40;99.90;;;;;;5120046;27;20047;-90
2022/09/17 11:57:12;;;;;;;7.63;1.60;;;15.20;99.90;;;;;;5137297;27;20043;-91
2022/09/17 11:59:55;;;;;;;7.28;1.23;;;15.10;99.90;;;;;;5137849;27;20078;-90
2022/09/17 12:02:37;;;;;;;9.13;1.70;;;15.00;99.90;;;;;;5137478;27;20042;-90
2022/09/17 12:05:10;;;;;;;7.00;1.40;;;14.80;99.90;;;;;;5137072;27;20045;-90
2022/09/17 12:07:41;;;;;;;8.80;1.60;;;14.70;99.90;;;;;;5120285;27;20049;-90
2022/09/17 12:10:31;;;;;;;7.53;1.30;;;14.70;99.90;;;;;;5120314;27;20031;-90
2022/09/17 12:13:09;;;;;;;7.03;1.20;;;14.70;99.90;;;;;;5119540;27;20066;-90
2022/09/17 12:15:39;;;;;;;8.65;1.88;;;14.60;99.90;;;;;;5120036;27;20050;-90
2022/09/17 12:18:46;;;;;;;7.90;1.25;;;14.80;99.90;;;;;;5120021;27;20035;-90
2022/09/17 12:21:16;;;;;;;6.88;1.05;;;14.90;99.90;;;;;;5136529;27;20121;-90
2022/09/17 12:24:26;;;;;;;7.35;1.75;;;14.90;99.90;;;;;;5137000;27;20046;-90
2022/09/17 12:27:13;;;;;;;6.45;1.42;;;14.90;99.90;;;;;;5017768;28;20537;-90
2022/09/17 12:29:57;;;;;;;9.77;1.55;;;15.00;99.90;;;;;;5034576;28;20048;-90
2022/09/17 12:32:53;;;;;;;7.38;1.70;;;15.20;99.90;;;;;;5033703;28;20080;-91
2022/09/17 12:35:35;;;;;;;8.13;1.65;;;15.40;99.90;;;;;;5017592;28;20080;-90
2022/09/17 12:38:24;;;;;;;9.73;1.58;;;15.50;99.90;;;;;;5033962;28;20052;-90
2022/09/17 12:40:58;;;;;;;7.13;1.70;;;15.50;99.90;;;;;;5034034;28;20049;-90
2022/09/17 12:43:42;;;;;;;10.38;1.80;;;15.50;99.90;;;;;;5034292;28;20565;-90
2022/09/17 12:46:14;;;;;;;9.27;1.85;;;15.40;99.90;;;;;;5034106;28;20383;-90
2022/09/17 12:49:03;;;;;;;8.00;1.27;;;15.40;99.90;;;;;;5033958;28;20376;-90
2022/09/17 12:51:57;;;;;;;8.85;1.83;;;15.40;99.90;;;;;;5017362;28;20045;-90
2022/09/17 12:54:47;;;;;;;11.07;2.10;;;15.40;99.90;;;;;;5034459;28;20060;-90
2022/09/17 12:57:19;;;;;;;7.47;1.88;;;15.60;99.90;;;;;;5033932;28;20470;-90
2022/09/17 12:59:57;;;;;;;8.88;2.13;;;16.10;99.90;;;;;;5038026;27;20045;-90
2022/09/17 13:02:33;;;;;;;11.13;2.15;;;16.60;99.90;;;;;;5118636;27;20041;-90
2022/09/17 13:05:13;;;;;;;11.20;2.20;;;16.90;99.90;;;;;;5154630;27;20043;-90
2022/09/17 13:08:06;;;;;;;10.80;2.08;;;17.40;99.90;;;;;;5136145;27;20041;-90
2022/09/17 13:10:40;;;;;;;9.77;1.40;;;17.80;99.90;;;;;;5136012;27;20407;-91
2022/09/17 13:13:33;;;;;;;11.98;3.28;;;17.90;99.90;;;;;;5118498;27;20035;-91